Terminal Aerodrome Forecast
Issued by NWS Twin Cities, MN

Home | Current Version | Previous Version | Text Only | Print | Product List | Glossary Off
Versions: 1 2 3 4 5 6 7 8 9 10 11 12 13 14 15 16 17 18 19 20 21

000
FTUS43 KMPX 220200 AAA
TAFSTC
TAF AMD
KSTC 220248Z 2203/2224 17011G20KT P6SM BKN200
     FM220600 15005KT P6SM VCTS SCT040CB BKN120
      TEMPO 2206/2208 32020G30KT 2SM TSRA BKN050CB OVC100
     FM220800 22013KT 6SM BR SCT060 BKN100
     FM221400 31016G23KT P6SM SCT040 SCT250=

USA.gov is the U.S. government's official web portal to all federal, state and local government web resources and services.